createdAt,value
2018-06-25T00:00:22.493Z,3.10
2018-06-25T00:02:50.717Z,2.77
2018-06-25T00:05:18.969Z,3.33
2018-06-25T00:07:47.120Z,3.10
2018-06-25T00:10:15.393Z,2.90
2018-06-25T00:12:43.593Z,3.57
2018-06-25T00:15:12.563Z,3.40
2018-06-25T00:17:42.073Z,3.00
2018-06-25T00:20:10.248Z,3.10
2018-06-25T00:22:39.441Z,3.47
2018-06-25T00:25:07.624Z,3.80
2018-06-25T00:27:37.855Z,3.33
2018-06-25T00:30:06.082Z,3.60
2018-06-25T00:32:36.237Z,3.43
2018-06-25T00:35:04.489Z,3.67
2018-06-25T00:37:32.680Z,3.67
2018-06-25T00:40:01.731Z,3.53
2018-06-25T00:42:29.961Z,3.87
2018-06-25T00:44:58.130Z,3.70
2018-06-25T00:47:26.301Z,3.90
2018-06-25T00:49:54.496Z,3.83
2018-06-25T00:52:23.465Z,3.60
2018-06-25T00:54:54.844Z,3.60
2018-06-25T00:57:22.821Z,4.13
2018-06-25T00:59:52.327Z,4.03
2018-06-25T01:02:21.740Z,3.90
2018-06-25T01:04:50.001Z,4.07
2018-06-25T01:07:18.548Z,4.03
2018-06-25T01:09:48.953Z,4.00
2018-06-25T01:12:17.157Z,3.73
2018-06-25T01:14:45.580Z,4.37
2018-06-25T01:17:13.995Z,3.87
2018-06-25T01:19:55.982Z,4.47
2018-06-25T01:22:24.961Z,4.20
2018-06-25T01:24:53.104Z,4.10
2018-06-25T01:27:21.044Z,4.30
2018-06-25T01:29:50.252Z,5.00
2018-06-25T01:32:19.456Z,5.10
2018-06-25T01:34:47.632Z,4.47
2018-06-25T01:37:16.145Z,4.20
2018-06-25T01:39:44.285Z,4.83
2018-06-25T01:42:13.038Z,5.00
2018-06-25T01:44:41.248Z,4.60
2018-06-25T01:47:09.412Z,4.63
2018-06-25T01:49:41.481Z,4.80
2018-06-25T01:52:09.649Z,4.67
2018-06-25T01:54:37.840Z,4.57
2018-06-25T01:57:07.937Z,4.40
2018-06-25T01:59:36.216Z,3.90
2018-06-25T02:02:04.369Z,4.60
2018-06-25T02:04:32.601Z,4.57
2018-06-25T02:07:00.499Z,4.53
2018-06-25T02:09:28.829Z,4.83
2018-06-25T02:11:57.008Z,4.17
2018-06-25T02:14:25.104Z,4.30
2018-06-25T02:16:53.245Z,4.63
2018-06-25T02:19:21.417Z,4.63
2018-06-25T02:21:49.553Z,4.47
2018-06-25T02:24:19.248Z,4.23
2018-06-25T02:26:47.560Z,4.50
2018-06-25T02:29:16.773Z,4.20
2018-06-25T02:31:44.949Z,4.47
2018-06-25T02:34:13.286Z,4.70
2018-06-25T02:39:15.136Z,4.27
2018-06-25T02:41:43.400Z,4.50
2018-06-25T02:44:11.302Z,4.70
2018-06-25T02:46:39.622Z,4.07
2018-06-25T02:49:08.821Z,4.40
2018-06-25T02:51:36.984Z,4.60
2018-06-25T02:54:05.177Z,4.60
2018-06-25T02:56:33.333Z,4.70
2018-06-25T02:59:01.688Z,4.17
2018-06-25T03:01:29.888Z,5.10
2018-06-25T03:03:58.040Z,5.07
2018-06-25T03:06:26.288Z,5.27
2018-06-25T03:08:54.452Z,5.00
2018-06-25T03:11:22.750Z,5.50
2018-06-25T03:13:57.667Z,4.93
2018-06-25T03:16:25.905Z,4.90
2018-06-25T03:18:54.064Z,4.70
2018-06-25T03:21:23.321Z,5.53
2018-06-25T03:23:51.464Z,5.10
2018-06-25T03:26:19.968Z,5.43
2018-06-25T03:28:47.916Z,5.37
2018-06-25T03:31:15.860Z,4.90
2018-06-25T03:33:46.561Z,5.67
2018-06-25T03:36:15.154Z,5.20
2018-06-25T03:38:43.362Z,5.40
2018-06-25T03:41:13.618Z,5.17
2018-06-25T03:43:41.765Z,6.17
2018-06-25T03:46:09.956Z,5.60
2018-06-25T03:48:38.668Z,5.20
2018-06-25T03:51:06.900Z,6.17
2018-06-25T03:53:34.809Z,5.73
2018-06-25T03:56:03.406Z,5.73
2018-06-25T03:58:31.649Z,5.50
2018-06-25T04:00:59.833Z,5.90
2018-06-25T04:03:29.116Z,6.00
2018-06-25T04:05:57.280Z,6.30
2018-06-25T04:08:25.234Z,6.10
2018-06-25T04:10:53.408Z,5.80
2018-06-25T04:13:21.589Z,6.20
2018-06-25T04:15:49.752Z,4.77
2018-06-25T04:18:17.936Z,5.13
2018-06-25T04:20:46.225Z,5.17
2018-06-25T04:23:14.352Z,5.30
2018-06-25T04:25:43.389Z,5.30
2018-06-25T04:28:11.840Z,5.87
2018-06-25T04:30:41.112Z,5.70
2018-06-25T04:33:09.201Z,5.80
2018-06-25T04:35:37.341Z,6.20
2018-06-25T04:38:05.619Z,6.33
2018-06-25T04:40:33.845Z,5.47
2018-06-25T04:43:01.985Z,5.33
2018-06-25T04:45:30.209Z,5.10
2018-06-25T04:47:59.404Z,4.97
2018-06-25T04:50:27.380Z,5.17
2018-06-25T04:52:55.524Z,5.07
2018-06-25T04:55:25.760Z,12.93
2018-06-25T04:57:53.919Z,5.33
2018-06-25T05:00:23.125Z,3.87
2018-06-25T05:02:51.296Z,3.97
2018-06-25T05:05:19.845Z,3.30
2018-06-25T05:07:47.976Z,2.60
2018-06-25T05:10:16.121Z,2.40
2018-06-25T05:12:44.284Z,2.20
2018-06-25T05:15:13.498Z,2.67
2018-06-25T05:17:41.673Z,2.20
2018-06-25T05:20:09.848Z,2.47
2018-06-25T05:22:37.991Z,2.10
2018-06-25T05:25:06.170Z,1.83
2018-06-25T05:27:34.549Z,2.47
2018-06-25T05:30:03.361Z,2.00
2018-06-25T05:32:31.780Z,1.57
2018-06-25T05:34:59.924Z,2.13
2018-06-25T05:37:28.069Z,1.87
2018-06-25T05:39:56.268Z,1.90
2018-06-25T05:42:24.425Z,2.60
2018-06-25T05:44:53.029Z,1.97
2018-06-25T05:47:22.300Z,1.83
2018-06-25T05:49:50.499Z,2.30
2018-06-25T05:52:18.674Z,2.27
2018-06-25T05:54:47.833Z,2.53
2018-06-25T05:57:16.134Z,2.80
2018-06-25T05:59:44.324Z,3.17
2018-06-25T06:02:12.509Z,2.43
2018-06-25T06:04:40.689Z,3.30
2018-06-25T06:07:09.692Z,2.80
2018-06-25T06:09:37.615Z,2.60
2018-06-25T06:12:05.833Z,3.17
2018-06-25T06:14:33.788Z,2.63
2018-06-25T06:17:01.737Z,2.33
2018-06-25T06:19:29.938Z,2.80
2018-06-25T06:21:57.976Z,2.43
2018-06-25T06:24:26.566Z,2.20
2018-06-25T06:26:54.652Z,2.10
2018-06-25T06:29:23.295Z,1.80
2018-06-25T06:31:51.599Z,1.47
2018-06-25T06:34:19.796Z,1.70
2018-06-25T06:36:47.993Z,1.67
2018-06-25T06:39:21.137Z,1.67
2018-06-25T06:41:49.332Z,1.50
2018-06-25T06:44:17.500Z,3.57
2018-06-25T06:46:45.709Z,1.87
2018-06-25T06:49:14.253Z,1.30
2018-06-25T06:51:42.420Z,1.10
2018-06-25T06:54:14.485Z,1.10
2018-06-25T06:56:42.652Z,1.10
2018-06-25T06:59:10.833Z,1.60
2018-06-25T07:01:39.001Z,1.17
2018-06-25T07:04:07.288Z,1.30
2018-06-25T07:06:35.460Z,1.23
2018-06-25T07:09:06.409Z,1.03
2018-06-25T07:11:34.364Z,1.13
2018-06-25T07:14:02.537Z,1.10
2018-06-25T07:16:31.633Z,1.30
2018-06-25T07:18:59.810Z,1.00
2018-06-25T07:21:28.021Z,1.10
2018-06-25T07:23:55.948Z,1.30
2018-06-25T07:26:25.730Z,1.10
2018-06-25T07:28:55.148Z,1.10
2018-06-25T07:31:23.386Z,1.30
2018-06-25T07:33:52.141Z,1.37
2018-06-25T07:36:20.340Z,1.10
2018-06-25T07:38:48.476Z,1.40
2018-06-25T07:41:17.781Z,1.27
2018-06-25T07:43:46.361Z,1.10
2018-06-25T07:46:14.976Z,1.20
2018-06-25T07:48:44.317Z,1.13
2018-06-25T07:51:12.525Z,1.00
2018-06-25T07:53:40.738Z,1.20
2018-06-25T07:56:09.902Z,1.60
2018-06-25T07:58:38.046Z,1.30
2018-06-25T08:01:06.777Z,1.40
2018-06-25T08:03:34.799Z,1.30
2018-06-25T08:06:02.905Z,1.07
2018-06-25T08:08:31.118Z,1.00
2018-06-25T08:11:01.301Z,0.80
2018-06-25T08:13:29.441Z,0.90
2018-06-25T08:15:58.656Z,1.20
2018-06-25T08:18:26.872Z,0.90
2018-06-25T08:20:54.804Z,1.03
2018-06-25T08:23:22.941Z,0.67
2018-06-25T08:25:52.333Z,0.70
2018-06-25T08:28:20.564Z,0.60
2018-06-25T08:30:49.757Z,1.00
2018-06-25T08:33:17.899Z,0.60
2018-06-25T08:35:48.053Z,0.70
2018-06-25T08:38:17.268Z,0.60
2018-06-25T08:40:45.434Z,0.50
2018-06-25T08:43:13.353Z,0.50
2018-06-25T08:45:41.595Z,0.67
2018-06-25T08:48:10.381Z,0.60
2018-06-25T08:50:39.005Z,0.70
2018-06-25T08:53:07.288Z,0.70
2018-06-25T08:55:36.435Z,0.43
2018-06-25T08:58:04.712Z,1.70
2018-06-25T09:00:34.696Z,1.53
2018-06-25T09:03:02.866Z,0.50
2018-06-25T09:05:31.010Z,0.73
2018-06-25T09:07:59.163Z,0.60
2018-06-25T09:10:31.774Z,0.60
2018-06-25T09:13:04.789Z,0.60
2018-06-25T09:15:34.092Z,0.57
2018-06-25T09:18:01.915Z,0.50
2018-06-25T09:20:31.164Z,0.50
2018-06-25T09:22:59.329Z,0.70
2018-06-25T09:25:28.529Z,0.50
2018-06-25T09:28:01.442Z,0.60
2018-06-25T09:30:29.281Z,0.43
2018-06-25T09:32:57.460Z,0.70
2018-06-25T09:35:25.718Z,0.60
2018-06-25T09:37:54.316Z,0.50
2018-06-25T09:40:22.490Z,0.70
2018-06-25T09:42:50.648Z,0.50
2018-06-25T09:45:18.852Z,0.67
2018-06-25T09:47:47.013Z,10.43
2018-06-25T09:50:17.100Z,1.10
2018-06-25T09:52:45.245Z,0.80
2018-06-25T09:55:14.412Z,0.67
2018-06-25T09:57:43.765Z,0.60
2018-06-25T10:00:14.849Z,0.50
2018-06-25T10:02:42.985Z,0.50
2018-06-25T10:05:11.149Z,0.57
2018-06-25T10:07:39.705Z,0.60
2018-06-25T10:10:08.195Z,0.50
2018-06-25T10:12:36.422Z,0.50
2018-06-25T10:15:04.591Z,0.40
2018-06-25T10:17:32.761Z,0.60
2018-06-25T10:20:01.006Z,0.73
2018-06-25T10:22:29.177Z,1.10
2018-06-25T10:24:57.370Z,0.60
2018-06-25T10:27:26.702Z,0.60
2018-06-25T10:29:54.889Z,1.70
2018-06-25T10:32:23.036Z,1.77
2018-06-25T10:34:51.241Z,1.00
2018-06-25T10:37:21.487Z,1.97
2018-06-25T10:39:50.752Z,0.70
2018-06-25T10:42:18.918Z,0.50
2018-06-25T10:44:49.129Z,0.60
2018-06-25T10:47:17.336Z,0.60
2018-06-25T10:49:46.712Z,0.50
2018-06-25T10:52:15.909Z,0.50
2018-06-25T10:54:44.206Z,0.57
2018-06-25T10:57:14.200Z,0.60
2018-06-25T10:59:42.424Z,0.60
2018-06-25T11:02:12.606Z,0.50
2018-06-25T11:04:41.800Z,0.80
2018-06-25T11:07:12.119Z,0.70
2018-06-25T11:09:40.301Z,0.83
2018-06-25T11:12:08.461Z,0.50
2018-06-25T11:14:36.620Z,0.80
2018-06-25T11:17:04.810Z,0.60
2018-06-25T11:19:32.936Z,0.50
2018-06-25T11:22:02.122Z,0.50
2018-06-25T11:24:30.261Z,0.77
2018-06-25T11:27:00.592Z,0.73
2018-06-25T11:29:28.662Z,1.67
2018-06-25T11:31:56.813Z,1.33
2018-06-25T11:34:25.030Z,0.73
2018-06-25T11:36:55.237Z,0.50
2018-06-25T11:39:24.427Z,0.50
2018-06-25T11:41:53.153Z,0.80
2018-06-25T11:44:21.265Z,0.77
2018-06-25T11:46:49.462Z,1.00
2018-06-25T11:49:17.609Z,0.60
2018-06-25T11:51:45.789Z,0.60
2018-06-25T11:54:15.081Z,0.70
2018-06-25T11:56:43.308Z,1.37
2018-06-25T11:59:11.213Z,0.60
2018-06-25T12:01:40.500Z,0.50
2018-06-25T12:04:12.540Z,0.47
2018-06-25T12:06:40.701Z,0.60
2018-06-25T12:09:10.294Z,0.43
2018-06-25T12:11:44.974Z,0.53
2018-06-25T12:14:19.031Z,0.50
2018-06-25T12:16:47.214Z,1.00
2018-06-25T12:19:15.357Z,0.40
2018-06-25T12:21:44.451Z,1.53
2018-06-25T12:24:12.609Z,0.80
2018-06-25T12:26:40.767Z,0.90
2018-06-25T12:29:10.748Z,1.13
2018-06-25T12:31:40.972Z,1.03
2018-06-25T12:34:09.150Z,0.50
2018-06-25T12:36:37.284Z,1.00
2018-06-25T12:39:08.235Z,1.47
2018-06-25T12:41:37.465Z,0.40
2018-06-25T12:44:07.464Z,0.50
2018-06-25T12:46:35.837Z,0.60
2018-06-25T12:49:04.168Z,0.70
2018-06-25T12:51:36.729Z,1.33
2018-06-25T12:54:05.893Z,1.47
2018-06-25T12:56:37.153Z,1.40
2018-06-25T12:59:05.056Z,0.60
2018-06-25T13:01:35.333Z,0.50
2018-06-25T13:04:04.343Z,0.60
2018-06-25T13:06:32.485Z,0.73
2018-06-25T13:09:00.725Z,0.80
2018-06-25T13:11:28.823Z,0.70
2018-06-25T13:13:57.014Z,0.70
2018-06-25T13:16:25.253Z,0.60
2018-06-25T13:18:53.428Z,0.40
2018-06-25T13:21:21.572Z,0.60
2018-06-25T13:23:49.750Z,0.47
2018-06-25T13:26:18.021Z,0.40
2018-06-25T13:28:45.921Z,0.37
2018-06-25T13:31:14.282Z,0.70
2018-06-25T13:33:42.280Z,1.27
2018-06-25T13:36:11.605Z,0.60
2018-06-25T13:38:40.008Z,0.57
2018-06-25T13:41:10.234Z,0.40
2018-06-25T13:43:38.589Z,0.40
2018-06-25T13:46:08.153Z,0.50
2018-06-25T13:48:36.372Z,0.80
2018-06-25T13:51:04.644Z,0.63
2018-06-25T13:53:32.789Z,0.60
2018-06-25T13:56:01.018Z,0.73
2018-06-25T13:58:29.177Z,0.70
2018-06-25T14:00:58.374Z,0.70
2018-06-25T14:03:27.616Z,0.70
2018-06-25T14:06:02.975Z,0.63
2018-06-25T14:08:33.124Z,0.47
2018-06-25T14:11:01.426Z,0.70
2018-06-25T14:13:36.281Z,0.60
2018-06-25T14:16:05.461Z,0.80
2018-06-25T14:18:33.601Z,1.30
2018-06-25T14:21:02.260Z,0.93
2018-06-25T14:23:30.904Z,0.70
2018-06-25T14:26:05.620Z,0.60
2018-06-25T14:28:35.425Z,0.60
2018-06-25T14:31:24.073Z,0.50
2018-06-25T14:33:57.708Z,0.67
2018-06-25T14:36:25.897Z,0.53
2018-06-25T14:38:54.140Z,2.43
2018-06-25T14:41:22.416Z,0.70
2018-06-25T14:43:50.584Z,0.70
2018-06-25T14:46:19.564Z,1.13
2018-06-25T14:48:47.846Z,0.77
2018-06-25T14:51:16.024Z,0.67
2018-06-25T14:53:44.165Z,0.83
2018-06-25T14:56:16.383Z,0.50
2018-06-25T14:58:44.521Z,0.60
2018-06-25T15:01:12.700Z,0.70
2018-06-25T15:03:41.921Z,0.60
2018-06-25T15:06:09.867Z,0.50
2018-06-25T15:08:39.080Z,0.90
2018-06-25T15:11:08.289Z,0.60
2018-06-25T15:13:36.457Z,0.70
2018-06-25T15:16:04.758Z,0.80
2018-06-25T15:18:34.457Z,0.60
2018-06-25T15:21:04.570Z,0.80
2018-06-25T15:23:32.517Z,0.80
2018-06-25T15:26:01.732Z,0.70
2018-06-25T15:28:29.880Z,0.90
2018-06-25T15:30:58.072Z,0.60
2018-06-25T15:33:26.212Z,0.60
2018-06-25T15:35:54.477Z,2.50
2018-06-25T15:38:23.701Z,0.90
2018-06-25T15:40:51.862Z,0.80
2018-06-25T15:43:21.086Z,0.77
2018-06-25T15:45:53.409Z,0.93
2018-06-25T15:48:22.240Z,0.70
2018-06-25T15:50:50.421Z,1.37
2018-06-25T15:53:18.590Z,1.03
2018-06-25T15:55:53.046Z,1.20
2018-06-25T15:58:21.212Z,1.13
2018-06-25T16:00:52.616Z,0.93
2018-06-25T16:03:20.842Z,0.67
2018-06-25T16:05:50.000Z,0.97
2018-06-25T16:08:18.185Z,0.87
2018-06-25T16:10:46.944Z,0.90
2018-06-25T16:13:15.092Z,0.80
2018-06-25T16:15:43.245Z,0.97
2018-06-25T16:18:11.178Z,0.97
2018-06-25T16:20:39.385Z,1.10
2018-06-25T16:23:07.327Z,1.37
2018-06-25T16:25:40.298Z,1.33
2018-06-25T16:28:10.527Z,1.00
2018-06-25T16:30:38.711Z,1.30
2018-06-25T16:33:06.873Z,1.20
2018-06-25T16:35:35.029Z,2.00
2018-06-25T16:38:03.278Z,1.73
2018-06-25T16:40:31.437Z,1.20
2018-06-25T16:43:00.598Z,1.10
2018-06-25T16:45:30.822Z,1.10
2018-06-25T16:48:00.012Z,1.40
2018-06-25T16:50:29.127Z,1.50
2018-06-25T16:52:59.336Z,1.10
2018-06-25T16:55:27.541Z,1.20
2018-06-25T16:57:57.550Z,1.40
2018-06-25T17:00:30.861Z,1.50
2018-06-25T17:02:59.101Z,2.30
2018-06-25T17:05:28.308Z,2.10
2018-06-25T17:08:00.524Z,1.53
2018-06-25T17:10:28.745Z,1.83
2018-06-25T17:12:56.913Z,1.70
2018-06-25T17:15:25.085Z,2.27
2018-06-25T17:17:53.233Z,2.27
2018-06-25T17:20:24.508Z,2.57
2018-06-25T17:22:52.702Z,3.13
2018-06-25T17:25:20.865Z,2.70
2018-06-25T17:27:53.041Z,3.10
2018-06-25T17:30:21.198Z,3.20
2018-06-25T17:32:49.401Z,2.80
2018-06-25T17:35:17.577Z,2.77
2018-06-25T17:37:46.737Z,2.90
2018-06-25T17:40:15.937Z,3.10
2018-06-25T17:42:45.134Z,3.27
2018-06-25T17:45:17.352Z,3.30
2018-06-25T17:47:45.612Z,3.53
2018-06-25T17:50:17.749Z,3.60
2018-06-25T17:52:48.684Z,3.30
2018-06-25T17:55:16.862Z,3.70
2018-06-25T17:57:47.090Z,3.70
2018-06-25T18:00:15.402Z,3.30
2018-06-25T18:02:43.655Z,4.43
2018-06-25T18:05:15.881Z,4.00
2018-06-25T18:07:50.769Z,3.90
2018-06-25T18:10:19.876Z,3.83
2018-06-25T18:12:48.124Z,4.00
2018-06-25T18:15:17.306Z,4.20
2018-06-25T18:17:45.505Z,3.83
2018-06-25T18:20:13.753Z,3.30
2018-06-25T18:22:41.936Z,3.50
2018-06-25T18:25:10.552Z,3.03
2018-06-25T18:27:41.240Z,3.40
2018-06-25T18:30:10.441Z,3.07
2018-06-25T18:32:38.809Z,3.23
2018-06-25T18:35:08.085Z,3.27
2018-06-25T18:37:38.242Z,3.77
2018-06-25T18:40:06.623Z,3.10
2018-06-25T18:42:35.817Z,3.13
2018-06-25T18:45:08.065Z,3.37
2018-06-25T18:47:38.397Z,3.10
2018-06-25T18:50:06.589Z,3.50
2018-06-25T18:52:35.829Z,3.33
2018-06-25T18:55:04.850Z,3.67
2018-06-25T18:57:33.069Z,3.30
2018-06-25T19:00:02.265Z,3.17
2018-06-25T19:02:30.260Z,3.37
2018-06-25T19:04:59.212Z,3.20
2018-06-25T19:07:31.579Z,3.33
2018-06-25T19:10:00.794Z,3.30
2018-06-25T19:12:29.065Z,3.23
2018-06-25T19:14:57.228Z,3.53
2018-06-25T19:17:25.418Z,3.47
2018-06-25T19:19:55.293Z,3.40
2018-06-25T19:22:23.678Z,3.90
2018-06-25T19:24:52.908Z,3.20
2018-06-25T19:27:21.085Z,3.37
2018-06-25T19:29:50.324Z,3.27
2018-06-25T19:32:20.528Z,4.00
2018-06-25T19:34:52.478Z,3.57
2018-06-25T19:37:20.648Z,3.30
2018-06-25T19:39:48.820Z,3.27
2018-06-25T19:42:18.818Z,3.50
2018-06-25T19:44:47.378Z,3.80
2018-06-25T19:47:15.595Z,3.47
2018-06-25T19:49:43.663Z,3.70
2018-06-25T19:52:11.613Z,3.63
2018-06-25T19:54:41.693Z,4.30
2018-06-25T19:57:12.261Z,3.80
2018-06-25T19:59:40.469Z,3.63
2018-06-25T20:02:08.591Z,3.90
2018-06-25T20:04:36.848Z,4.50
2018-06-25T20:07:05.170Z,3.77
2018-06-25T20:09:35.385Z,3.70
2018-06-25T20:12:03.601Z,3.57
2018-06-25T20:14:31.550Z,3.80
2018-06-25T20:17:02.777Z,3.50
2018-06-25T20:19:30.986Z,3.87
2018-06-25T20:21:59.126Z,3.40
2018-06-25T20:24:27.313Z,3.40
2018-06-25T20:26:55.551Z,3.20
2018-06-25T20:29:28.281Z,3.47
2018-06-25T20:31:56.632Z,3.70
2018-06-25T20:34:25.245Z,3.47
2018-06-25T20:36:54.689Z,3.43
2018-06-25T20:39:22.908Z,4.30
2018-06-25T20:41:53.117Z,5.03
2018-06-25T20:44:22.325Z,4.27
2018-06-25T20:46:52.637Z,4.60
2018-06-25T20:49:21.737Z,5.80
2018-06-25T20:51:49.921Z,5.27
2018-06-25T20:54:18.111Z,6.07
2018-06-25T20:56:47.362Z,6.30
2018-06-25T20:59:16.131Z,6.70
2018-06-25T21:01:44.363Z,6.83
2018-06-25T21:04:12.531Z,6.57
2018-06-25T21:06:42.821Z,7.53
2018-06-25T21:09:12.249Z,6.90
2018-06-25T21:11:41.140Z,6.93
2018-06-25T21:14:09.333Z,7.17
2018-06-25T21:16:38.304Z,7.23
2018-06-25T21:19:06.485Z,6.87
2018-06-25T21:21:36.701Z,7.13
2018-06-25T21:24:05.050Z,6.87
2018-06-25T21:26:33.266Z,6.90
2018-06-25T21:29:02.445Z,7.07
2018-06-25T21:31:30.664Z,7.10
2018-06-25T21:33:58.614Z,7.40
2018-06-25T21:36:27.797Z,7.33
2018-06-25T21:38:57.005Z,7.60
2018-06-25T21:41:25.153Z,7.80
2018-06-25T21:43:53.364Z,7.43
2018-06-25T21:46:21.510Z,8.23
2018-06-25T21:48:50.764Z,8.23
2018-06-25T21:51:20.937Z,9.00
2018-06-25T21:53:50.132Z,7.73
2018-06-25T21:56:18.285Z,8.67
2018-06-25T21:58:46.420Z,7.73
2018-06-25T22:01:25.357Z,8.00
2018-06-25T22:03:53.580Z,8.07
2018-06-25T22:06:21.752Z,8.83
2018-06-25T22:08:50.009Z,9.27
2018-06-25T22:11:22.373Z,8.97
2018-06-25T22:13:50.509Z,8.50
2018-06-25T22:16:18.665Z,8.77
2018-06-25T22:18:46.816Z,9.00
2018-06-25T22:21:15.021Z,9.20
2018-06-25T22:23:42.972Z,8.57
2018-06-25T22:26:11.114Z,8.67
2018-06-25T22:28:39.261Z,8.60
2018-06-25T22:31:07.529Z,8.13
2018-06-25T22:33:35.757Z,8.20
2018-06-25T22:36:03.943Z,8.47
2018-06-25T22:38:32.104Z,7.87
2018-06-25T22:41:00.320Z,8.67
2018-06-25T22:43:28.560Z,8.43
2018-06-25T22:45:56.745Z,8.27
2018-06-25T22:48:24.921Z,7.80
2018-06-25T22:50:54.108Z,7.70
2018-06-25T22:53:22.250Z,7.53
2018-06-25T22:55:50.497Z,7.73
2018-06-25T22:58:18.726Z,7.67
2018-06-25T23:00:47.925Z,7.50
2018-06-25T23:03:16.580Z,7.63
2018-06-25T23:05:44.786Z,8.03
2018-06-25T23:08:12.987Z,8.07
2018-06-25T23:10:41.130Z,7.50
2018-06-25T23:13:09.329Z,7.73
2018-06-25T23:15:37.548Z,7.37
2018-06-25T23:18:05.757Z,8.07
2018-06-25T23:20:33.937Z,8.30
2018-06-25T23:23:02.128Z,7.37
2018-06-25T23:25:30.274Z,7.90
2018-06-25T23:27:58.454Z,8.00
2018-06-25T23:30:26.609Z,8.03
2018-06-25T23:32:54.817Z,7.27
2018-06-25T23:35:22.978Z,8.13
2018-06-25T23:40:28.341Z,7.37
2018-06-25T23:42:56.568Z,6.87
2018-06-25T23:45:24.709Z,8.10
2018-06-25T23:47:52.669Z,7.27
2018-06-25T23:50:20.825Z,7.47
2018-06-25T23:52:49.107Z,7.70
2018-06-25T23:55:17.288Z,7.80
2018-06-25T23:57:45.514Z,7.60
